createdAt,value
2019-04-11T00:02:14.621Z,16.82
2019-04-11T00:04:44.842Z,17.92
2019-04-11T00:07:16.152Z,17.45
2019-04-11T00:09:47.821Z,18.52
2019-04-11T00:14:48.917Z,20.12
2019-04-11T00:17:19.563Z,19.65
2019-04-11T00:19:50.125Z,17.30
2019-04-11T00:22:21.484Z,16.10
2019-04-11T00:24:51.829Z,16.62
2019-04-11T00:27:22.031Z,16.97
2019-04-11T00:29:53.315Z,16.15
2019-04-11T00:32:23.708Z,16.15
2019-04-11T00:34:53.898Z,15.03
2019-04-11T00:37:25.197Z,14.00
2019-04-11T00:39:56.304Z,14.60
2019-04-11T00:42:26.669Z,14.33
2019-04-11T00:44:59.024Z,15.10
2019-04-11T00:47:29.316Z,13.93
2019-04-11T00:49:59.537Z,16.17
2019-04-11T00:52:29.726Z,17.02
2019-04-11T00:54:59.951Z,18.62
2019-04-11T00:57:30.700Z,24.32
2019-04-11T01:00:00.933Z,27.90
2019-04-11T01:02:31.556Z,30.80
2019-04-11T01:05:01.764Z,30.82
2019-04-11T01:07:33.171Z,34.50
2019-04-11T01:10:04.589Z,33.58
2019-04-11T01:12:34.969Z,33.25
2019-04-11T01:15:07.108Z,34.60
2019-04-11T01:17:37.413Z,36.13
2019-04-11T01:20:08.127Z,35.75
2019-04-11T01:22:38.578Z,35.33
2019-04-11T01:25:08.815Z,35.33
2019-04-11T01:27:40.004Z,35.55
2019-04-11T01:30:13.645Z,38.75
2019-04-11T01:32:44.023Z,43.13
2019-04-11T01:35:15.160Z,37.80
2019-04-11T01:37:46.151Z,37.00
2019-04-11T01:40:16.561Z,42.38
2019-04-11T01:42:47.901Z,46.23
2019-04-11T01:45:19.644Z,49.30
2019-04-11T01:50:32.688Z,48.87
2019-04-11T01:53:03.098Z,45.98
2019-04-11T01:55:34.643Z,45.12
2019-04-11T01:58:04.915Z,39.98
2019-04-11T02:00:56.656Z,41.90
2019-04-11T02:03:47.609Z,38.50
2019-04-11T02:06:18.262Z,38.58
2019-04-11T02:08:49.328Z,37.38
2019-04-11T02:11:19.756Z,37.33
2019-04-11T02:13:50.347Z,38.42
2019-04-11T02:16:21.018Z,44.53
2019-04-11T02:18:51.929Z,40.48
2019-04-11T02:21:22.159Z,44.35
2019-04-11T02:23:56.689Z,46.95
2019-04-11T02:26:35.624Z,47.00
2019-04-11T02:29:06.344Z,41.55
2019-04-11T02:31:37.054Z,43.35
2019-04-11T02:34:08.955Z,37.65
2019-04-11T02:36:40.555Z,43.08
2019-04-11T02:39:16.916Z,38.63
2019-04-11T02:41:44.593Z,42.62
2019-04-11T02:44:30.647Z,41.08
2019-04-11T02:46:55.776Z,41.13
2019-04-11T02:49:21.340Z,42.25
2019-04-11T02:54:23.619Z,41.65
2019-04-11T02:56:54.786Z,37.60
2019-04-11T02:59:26.067Z,39.18
2019-04-11T03:01:58.197Z,35.05
2019-04-11T03:04:28.936Z,38.60
2019-04-11T03:07:00.596Z,37.40
2019-04-11T03:09:31.337Z,35.08
2019-04-11T03:12:02.942Z,36.70
2019-04-11T03:14:51.824Z,33.30
2019-04-11T03:19:47.739Z,32.45
2019-04-11T03:22:09.934Z,32.20
2019-04-11T03:24:42.731Z,29.63
2019-04-11T03:27:13.031Z,28.20
2019-04-11T03:29:43.651Z,28.75
2019-04-11T03:33:07.982Z,27.75
2019-04-11T03:37:47.970Z,25.35
2019-04-11T03:40:15.426Z,25.02
2019-04-11T03:42:41.620Z,22.52
2019-04-11T03:45:15.227Z,25.25
2019-04-11T03:47:40.837Z,25.37
2019-04-11T03:50:07.956Z,21.82
2019-04-11T03:55:06.764Z,23.75
2019-04-11T03:57:36.927Z,23.07
2019-04-11T04:00:07.760Z,23.42
2019-04-11T04:02:39.103Z,23.50
2019-04-11T04:05:10.677Z,24.35
2019-04-11T04:07:41.098Z,25.07
2019-04-11T04:10:13.273Z,29.40
2019-04-11T04:15:36.142Z,34.73
2019-04-11T04:17:52.099Z,29.05
2019-04-11T04:20:24.654Z,28.65
2019-04-11T04:22:56.784Z,26.42
2019-04-11T04:25:28.585Z,24.98
2019-04-11T04:28:00.445Z,20.95
2019-04-11T04:30:30.695Z,22.77
2019-04-11T04:33:02.893Z,20.90
2019-04-11T04:38:05.161Z,20.85
2019-04-11T04:40:50.957Z,20.15
2019-04-11T04:45:57.940Z,18.67
2019-04-11T04:48:12.566Z,19.92
2019-04-11T04:50:42.303Z,20.68
2019-04-11T04:53:13.725Z,19.87
2019-04-11T04:55:45.652Z,19.00
2019-04-11T04:58:17.821Z,19.32
2019-04-11T05:00:48.409Z,16.37
2019-04-11T05:03:20.050Z,19.17
2019-04-11T05:05:51.063Z,17.50
2019-04-11T05:08:22.850Z,18.67
2019-04-11T05:10:53.509Z,21.00
2019-04-11T05:13:24.031Z,23.67
2019-04-11T05:16:06.983Z,27.30
2019-04-11T05:20:56.993Z,25.52
2019-04-11T05:23:29.704Z,29.18
2019-04-11T05:26:00.589Z,30.97
2019-04-11T05:28:31.943Z,34.05
2019-04-11T05:31:02.593Z,31.73
2019-04-11T05:33:33.364Z,35.63
2019-04-11T05:36:03.981Z,18.75
2019-04-11T05:38:34.273Z,20.02
2019-04-11T05:41:04.501Z,18.75
2019-04-11T05:43:37.379Z,16.52
2019-04-11T05:49:00.442Z,17.85
2019-04-11T05:51:38.857Z,17.50
2019-04-11T05:54:05.940Z,18.07
2019-04-11T05:59:09.451Z,17.92
2019-04-11T06:01:47.129Z,17.75
2019-04-11T06:04:37.281Z,20.32
2019-04-11T06:07:11.397Z,19.35
2019-04-11T06:09:42.765Z,20.90
2019-04-11T06:12:19.094Z,20.92
2019-04-11T06:15:09.543Z,20.20
2019-04-11T06:17:42.674Z,19.25
2019-04-11T06:20:14.768Z,19.17
2019-04-11T06:22:47.666Z,19.52
2019-04-11T06:25:23.474Z,17.37
2019-04-11T06:27:55.827Z,19.52
2019-04-11T06:30:44.388Z,22.73
2019-04-11T06:33:16.714Z,22.17
2019-04-11T06:36:04.279Z,21.97
2019-04-11T06:38:49.174Z,21.75
2019-04-11T06:41:36.868Z,23.40
2019-04-11T06:44:15.083Z,26.05
2019-04-11T06:46:54.093Z,30.17
2019-04-11T06:49:24.664Z,31.25
2019-04-11T06:52:00.195Z,27.07
2019-04-11T06:54:41.649Z,32.30
2019-04-11T06:57:13.977Z,28.47
2019-04-11T06:59:46.064Z,30.68
2019-04-11T07:02:20.284Z,28.10
2019-04-11T07:07:26.122Z,29.95
2019-04-11T07:09:57.593Z,26.75
2019-04-11T07:12:30.683Z,27.62
2019-04-11T07:15:02.640Z,27.87
2019-04-11T07:17:52.529Z,25.00
2019-04-11T07:20:41.423Z,23.80
2019-04-11T07:23:30.791Z,23.50
2019-04-11T07:26:18.889Z,22.87
2019-04-11T07:28:54.291Z,23.95
2019-04-11T07:31:39.603Z,22.32
2019-04-11T07:34:31.540Z,23.22
2019-04-11T07:37:06.818Z,20.95
2019-04-11T07:39:56.232Z,19.85
2019-04-11T07:42:44.839Z,18.95
2019-04-11T07:45:23.095Z,18.23
2019-04-11T07:47:55.157Z,18.82
2019-04-11T07:50:26.224Z,17.92
2019-04-11T07:53:03.116Z,16.35
2019-04-11T07:55:34.363Z,15.83
2019-04-11T07:58:13.046Z,13.78
2019-04-11T08:01:03.712Z,13.55
2019-04-11T08:03:41.517Z,13.83
2019-04-11T08:06:30.998Z,12.68
2019-04-11T08:09:19.158Z,9.78
2019-04-11T08:12:00.331Z,11.08
2019-04-11T08:14:34.932Z,11.15
2019-04-11T08:17:09.482Z,10.93
2019-04-11T08:19:57.530Z,10.25
2019-04-11T08:22:45.453Z,11.22
2019-04-11T08:25:34.034Z,9.70
2019-04-11T08:28:07.620Z,8.43
2019-04-11T08:30:45.046Z,10.03
2019-04-11T08:33:16.876Z,9.50
2019-04-11T08:35:54.872Z,9.40
2019-04-11T08:38:28.774Z,9.68
2019-04-11T08:41:20.169Z,11.50
2019-04-11T08:43:51.181Z,38.23
2019-04-11T08:46:26.715Z,10.03
2019-04-11T08:48:59.436Z,7.50
2019-04-11T08:51:31.620Z,7.90
2019-04-11T08:54:09.194Z,7.30
2019-04-11T08:56:41.099Z,8.33
2019-04-11T08:59:30.634Z,7.95
2019-04-11T09:02:00.722Z,7.47
2019-04-11T09:04:48.554Z,6.55
2019-04-11T09:07:21.181Z,7.15
2019-04-11T09:09:53.681Z,7.15
2019-04-11T09:12:24.634Z,6.87
2019-04-11T09:14:56.836Z,6.63
2019-04-11T09:17:28.600Z,7.28
2019-04-11T09:22:43.318Z,5.10
2019-04-11T09:28:00.769Z,5.45
2019-04-11T09:30:49.317Z,5.92
2019-04-11T09:33:28.865Z,6.05
2019-04-11T09:36:06.385Z,4.97
2019-04-11T09:38:38.203Z,5.85
2019-04-11T09:43:58.074Z,5.70
2019-04-11T09:46:42.819Z,4.92
2019-04-11T09:49:15.028Z,5.03
2019-04-11T09:51:47.744Z,5.70
2019-04-11T09:54:28.277Z,6.10
2019-04-11T09:57:00.432Z,5.80
2019-04-11T09:59:49.707Z,5.80
2019-04-11T10:02:39.752Z,6.62
2019-04-11T10:05:11.562Z,5.00
2019-04-11T10:07:50.214Z,4.58
2019-04-11T10:10:28.930Z,6.00
2019-04-11T10:13:06.884Z,5.45
2019-04-11T10:15:43.119Z,6.50
2019-04-11T10:18:27.769Z,6.45
2019-04-11T10:20:57.162Z,5.90
2019-04-11T10:23:29.246Z,6.58
2019-04-11T10:25:59.869Z,6.75
2019-04-11T10:28:47.792Z,6.00
2019-04-11T10:31:18.147Z,6.75
2019-04-11T10:33:59.538Z,5.87
2019-04-11T10:36:31.656Z,6.70
2019-04-11T10:41:44.177Z,5.37
2019-04-11T10:44:16.096Z,5.00
2019-04-11T10:49:34.498Z,5.47
2019-04-11T10:52:12.273Z,5.67
2019-04-11T10:54:43.012Z,5.53
2019-04-11T10:57:31.978Z,6.42
2019-04-11T11:00:05.049Z,5.05
2019-04-11T11:02:42.838Z,5.03
2019-04-11T11:05:17.584Z,4.67
2019-04-11T11:07:48.886Z,4.40
2019-04-11T11:10:21.677Z,5.03
2019-04-11T11:12:53.814Z,5.35
2019-04-11T11:15:25.804Z,5.00
2019-04-11T11:18:38.202Z,4.67
2019-04-11T11:20:54.045Z,4.72
2019-04-11T11:23:31.128Z,4.50
2019-04-11T11:26:09.468Z,6.22
2019-04-11T11:28:44.062Z,4.95
2019-04-11T11:31:16.007Z,4.70
2019-04-11T11:33:46.900Z,5.03
2019-04-11T11:36:37.446Z,4.83
2019-04-11T11:39:15.160Z,5.00
2019-04-11T11:41:59.221Z,4.55
2019-04-11T11:44:46.670Z,4.28
2019-04-11T11:47:39.461Z,4.08
2019-04-11T11:50:15.663Z,4.15
2019-04-11T11:52:57.957Z,4.30
2019-04-11T11:55:29.719Z,4.78
2019-04-11T12:00:43.805Z,5.03
2019-04-11T12:06:05.364Z,4.70
2019-04-11T12:08:54.046Z,4.80
2019-04-11T12:11:26.258Z,5.20
2019-04-11T12:14:13.029Z,4.85
2019-04-11T12:16:55.014Z,4.95
2019-04-11T12:19:24.761Z,4.30
2019-04-11T12:21:57.089Z,4.65
2019-04-11T12:24:29.035Z,5.45
2019-04-11T12:29:56.048Z,4.50
2019-04-11T12:32:30.585Z,4.17
2019-04-11T12:35:15.681Z,4.30
2019-04-11T12:38:05.808Z,4.22
2019-04-11T12:40:46.768Z,3.67
2019-04-11T12:43:17.759Z,4.10
2019-04-11T12:45:49.561Z,3.55
2019-04-11T12:48:21.005Z,3.42
2019-04-11T12:51:09.702Z,4.10
2019-04-11T12:53:40.147Z,4.00
2019-04-11T12:56:21.002Z,4.17
2019-04-11T12:58:52.565Z,4.63
2019-04-11T13:01:27.375Z,4.17
2019-04-11T13:04:14.551Z,4.53
2019-04-11T13:06:46.312Z,4.35
2019-04-11T13:12:01.049Z,5.25
2019-04-11T13:14:33.890Z,4.83
2019-04-11T13:17:20.952Z,4.55
2019-04-11T13:20:04.985Z,4.97
2019-04-11T13:22:33.645Z,4.15
2019-04-11T13:25:22.549Z,4.78
2019-04-11T13:27:54.271Z,3.98
2019-04-11T13:30:42.780Z,3.87
2019-04-11T13:33:15.996Z,4.05
2019-04-11T13:35:53.747Z,4.05
2019-04-11T13:38:25.534Z,3.47
2019-04-11T13:41:13.672Z,3.35
2019-04-11T13:43:45.449Z,4.42
2019-04-11T13:46:23.727Z,4.47
2019-04-11T13:49:08.008Z,4.12
2019-04-11T13:51:45.720Z,4.42
2019-04-11T13:54:33.878Z,4.15
2019-04-11T13:57:14.503Z,4.03
2019-04-11T14:00:01.349Z,4.30
2019-04-11T14:02:51.218Z,4.15
2019-04-11T14:05:22.532Z,3.98
2019-04-11T14:07:54.411Z,3.65
2019-04-11T14:10:24.773Z,4.58
2019-04-11T14:12:56.939Z,3.30
2019-04-11T14:15:29.519Z,4.35
2019-04-11T14:18:01.741Z,4.65
2019-04-11T14:23:24.347Z,5.40
2019-04-11T14:25:59.261Z,5.08
2019-04-11T14:28:43.090Z,4.87
2019-04-11T14:31:23.888Z,5.15
2019-04-11T14:36:43.651Z,4.65
2019-04-11T14:39:15.710Z,4.92
2019-04-11T14:42:04.725Z,4.05
2019-04-11T14:44:39.836Z,4.40
2019-04-11T14:47:26.828Z,4.40
2019-04-11T14:50:01.659Z,4.65
2019-04-11T14:52:36.392Z,5.10
2019-04-11T14:55:08.726Z,4.72
2019-04-11T14:57:53.566Z,4.40
2019-04-11T15:00:32.146Z,4.40
2019-04-11T15:03:09.950Z,4.72
2019-04-11T15:05:44.578Z,4.53
2019-04-11T15:08:17.682Z,5.58
2019-04-11T15:10:48.980Z,4.60
2019-04-11T15:13:21.161Z,5.25
2019-04-11T15:15:53.069Z,5.17
2019-04-11T15:20:55.844Z,5.53
2019-04-11T15:23:30.978Z,5.40
2019-04-11T15:26:07.865Z,5.83
2019-04-11T15:28:43.676Z,7.20
2019-04-11T15:31:18.906Z,7.17
2019-04-11T15:33:51.510Z,8.60
2019-04-11T15:36:23.315Z,8.83
2019-04-11T15:39:11.628Z,7.35
2019-04-11T15:41:43.556Z,8.08
2019-04-11T15:44:32.174Z,7.95
2019-04-11T15:47:04.780Z,8.88
2019-04-11T15:49:53.258Z,9.65
2019-04-11T15:52:23.744Z,9.08
2019-04-11T15:55:02.413Z,10.15
2019-04-11T15:57:35.777Z,12.37
2019-04-11T16:03:04.400Z,12.73
2019-04-11T16:05:52.893Z,11.93
2019-04-11T16:08:24.793Z,14.87
2019-04-11T16:13:50.158Z,15.00
2019-04-11T16:16:22.029Z,14.35
2019-04-11T16:21:39.782Z,15.53
2019-04-11T16:24:13.477Z,14.73
2019-04-11T16:27:03.414Z,15.35
2019-04-11T16:29:38.700Z,15.55
2019-04-11T16:32:08.800Z,16.40
2019-04-11T16:34:48.200Z,17.25
2019-04-11T16:37:13.189Z,16.37
2019-04-11T16:39:54.811Z,18.85
2019-04-11T16:42:24.814Z,18.87
2019-04-11T16:45:13.794Z,17.60
2019-04-11T16:47:57.677Z,18.67
2019-04-11T16:50:28.025Z,19.77
2019-04-11T16:52:58.762Z,20.23
2019-04-11T16:55:28.998Z,23.70
2019-04-11T16:57:59.306Z,23.20
2019-04-11T17:00:29.541Z,23.32
2019-04-11T17:02:59.748Z,24.18
2019-04-11T17:05:30.072Z,24.45
2019-04-11T17:08:07.729Z,23.02
2019-04-11T17:10:57.529Z,23.02
2019-04-11T17:13:28.799Z,26.10
2019-04-11T17:16:01.128Z,24.87
2019-04-11T17:18:34.082Z,28.12
2019-04-11T17:23:32.599Z,29.67
2019-04-11T17:26:02.831Z,32.42
2019-04-11T17:28:33.147Z,35.78
2019-04-11T17:31:03.917Z,45.40
2019-04-11T17:33:34.545Z,50.63
2019-04-11T17:36:05.137Z,60.12
2019-04-11T17:38:37.154Z,71.00
2019-04-11T17:43:36.775Z,82.67
2019-04-11T17:46:07.490Z,89.37
2019-04-11T17:48:37.733Z,92.40
2019-04-11T17:51:09.599Z,84.35
2019-04-11T17:53:40.191Z,80.57
2019-04-11T17:56:10.560Z,76.95
2019-04-11T17:58:41.035Z,71.97
2019-04-11T18:01:11.299Z,73.33
2019-04-11T18:03:42.093Z,68.72
2019-04-11T18:08:46.636Z,74.47
2019-04-11T18:11:16.690Z,74.95
2019-04-11T18:13:46.925Z,77.15
2019-04-11T18:16:17.357Z,73.07
2019-04-11T18:18:47.638Z,75.75
2019-04-11T18:21:18.157Z,74.03
2019-04-11T18:23:50.081Z,70.40
2019-04-11T18:26:22.084Z,69.25
2019-04-11T18:28:52.662Z,56.23
2019-04-11T18:31:25.129Z,50.95
2019-04-11T18:36:25.416Z,46.15
2019-04-11T18:38:55.677Z,47.43
2019-04-11T18:41:26.181Z,49.77
2019-04-11T18:43:57.574Z,50.28
2019-04-11T18:46:27.960Z,50.00
2019-04-11T18:48:58.295Z,49.80
2019-04-11T18:51:30.390Z,48.28
2019-04-11T18:54:04.689Z,47.83
2019-04-11T18:59:07.358Z,51.33
2019-04-11T19:01:39.867Z,48.92
2019-04-11T19:04:12.139Z,49.25
2019-04-11T19:06:44.273Z,49.60
2019-04-11T19:09:15.848Z,49.88
2019-04-11T19:11:46.228Z,45.90
2019-04-11T19:14:17.541Z,48.68
2019-04-11T19:16:48.410Z,48.38
2019-04-11T19:19:19.607Z,49.83
2019-04-11T19:21:51.122Z,47.70
2019-04-11T19:24:34.817Z,48.70
2019-04-11T19:26:55.000Z,47.53
2019-04-11T19:29:25.640Z,53.60
2019-04-11T19:31:55.920Z,52.15
2019-04-11T19:34:26.117Z,50.25
2019-04-11T19:36:56.393Z,51.73
2019-04-11T19:39:26.675Z,49.03
2019-04-11T19:41:56.928Z,52.60
2019-04-11T19:44:27.214Z,50.43
2019-04-11T19:46:57.439Z,52.13
2019-04-11T19:49:28.980Z,56.25
2019-04-11T19:54:32.705Z,53.80
2019-04-11T19:59:36.025Z,58.52
2019-04-11T20:02:07.426Z,60.12
2019-04-11T20:04:37.793Z,56.95
2019-04-11T20:07:08.445Z,54.27
2019-04-11T20:09:38.684Z,56.90
2019-04-11T20:12:08.884Z,54.85
2019-04-11T20:14:39.198Z,57.33
2019-04-11T20:17:09.709Z,53.05
2019-04-11T20:19:39.939Z,57.35
2019-04-11T20:22:10.272Z,52.58
2019-04-11T20:24:40.575Z,56.35
2019-04-11T20:27:12.159Z,53.40
2019-04-11T20:29:42.489Z,59.08
2019-04-11T20:32:12.909Z,56.95
2019-04-11T20:34:43.627Z,57.17
2019-04-11T20:37:13.861Z,56.13
2019-04-11T20:39:46.815Z,55.75
2019-04-11T20:42:17.175Z,61.70
2019-04-11T20:44:47.713Z,57.48
2019-04-11T20:47:18.003Z,53.35
2019-04-11T20:49:49.018Z,56.35
2019-04-11T20:52:19.272Z,53.40
2019-04-11T20:54:49.517Z,48.92
2019-04-11T20:57:25.650Z,51.95
2019-04-11T20:59:51.709Z,52.55
2019-04-11T21:02:21.900Z,53.25
2019-04-11T21:04:52.080Z,58.45
2019-04-11T21:07:22.383Z,57.27
2019-04-11T21:09:52.601Z,58.38
2019-04-11T21:12:22.901Z,57.67
2019-04-11T21:14:54.331Z,54.48
2019-04-11T21:17:24.687Z,59.15
2019-04-11T21:19:55.004Z,58.05
2019-04-11T21:22:25.323Z,54.93
2019-04-11T21:24:56.589Z,57.17
2019-04-11T21:27:28.905Z,61.33
2019-04-11T21:30:00.042Z,59.85
2019-04-11T21:35:02.900Z,60.95
2019-04-11T21:37:33.362Z,56.45
2019-04-11T21:40:04.724Z,60.92
2019-04-11T21:42:36.203Z,62.65
2019-04-11T21:45:06.956Z,52.95
2019-04-11T21:47:38.082Z,55.33
2019-04-11T21:50:09.593Z,57.67
2019-04-11T21:55:15.201Z,53.75
2019-04-11T22:00:16.929Z,53.38
2019-04-11T22:02:48.962Z,55.60
2019-04-11T22:05:19.205Z,54.05
2019-04-11T22:07:49.464Z,49.88
2019-04-11T22:10:19.643Z,50.33
2019-04-11T22:12:49.932Z,57.50
2019-04-11T22:15:19.945Z,54.20
2019-04-11T22:17:50.140Z,51.13
2019-04-11T22:20:20.220Z,51.65
2019-04-11T22:22:50.490Z,52.90
2019-04-11T22:25:20.819Z,59.48
2019-04-11T22:27:53.692Z,55.75
2019-04-11T22:30:25.081Z,60.03
2019-04-11T22:35:29.000Z,59.25
2019-04-11T22:37:59.918Z,59.53
2019-04-11T22:40:31.953Z,62.13
2019-04-11T22:43:02.815Z,67.95
2019-04-11T22:45:33.030Z,67.55
2019-04-11T22:48:03.251Z,73.70
2019-04-11T22:50:33.363Z,68.05
2019-04-11T22:53:03.438Z,74.00
2019-04-11T22:55:33.602Z,78.40
2019-04-11T22:58:03.831Z,72.35
2019-04-11T23:00:34.040Z,86.75
2019-04-11T23:03:06.277Z,91.15
2019-04-11T23:05:36.445Z,91.87
2019-04-11T23:08:06.506Z,93.92
2019-04-11T23:10:36.680Z,84.15
2019-04-11T23:13:06.881Z,80.90
2019-04-11T23:15:37.121Z,85.83
2019-04-11T23:18:07.576Z,85.85
2019-04-11T23:20:37.781Z,76.22
2019-04-11T23:23:08.016Z,73.78
2019-04-11T23:25:38.079Z,68.75
2019-04-11T23:28:08.337Z,65.65
2019-04-11T23:30:38.542Z,62.98
2019-04-11T23:33:08.700Z,62.17
2019-04-11T23:35:38.997Z,54.90
2019-04-11T23:38:09.111Z,55.60
2019-04-11T23:40:39.185Z,49.95
2019-04-11T23:43:09.432Z,52.93
2019-04-11T23:45:39.655Z,48.17
2019-04-11T23:48:09.814Z,52.58
2019-04-11T23:50:40.030Z,48.42
2019-04-11T23:53:10.242Z,59.13
2019-04-11T23:55:40.479Z,57.30
2019-04-11T23:58:10.687Z,53.55
